Time;durP1;ratioP1;P1;durP2;ratioP2;P2;SDS_P1;SDS_P2;PMS_P1;PMS_P2;Temp;Humidity;BMP_temperature;BMP_pressure;BME280_temperature;BME280_humidity;BME280_pressure;Samples;Min_cycle;Max_cycle;Signal;HPM_P1;HPM_P2
2022/09/30 00:01:08;;;;;;;3.83;3.53;;;11.10;99.90;;;;;;4976397;28;93185;-70
2022/09/30 00:03:37;;;;;;;4.18;3.88;;;11.00;99.90;;;;;;4991407;28;95847;-70
2022/09/30 00:06:06;;;;;;;4.47;4.07;;;11.00;99.90;;;;;;4973908;28;95338;-70
2022/09/30 00:08:36;;;;;;;4.57;4.18;;;11.00;99.90;;;;;;4975124;28;92464;-70
2022/09/30 00:11:06;;;;;;;4.93;4.35;;;11.00;99.90;;;;;;4974678;28;106020;-70
2022/09/30 00:13:35;;;;;;;5.57;4.38;;;11.00;99.90;;;;;;4974802;28;92460;-70
2022/09/30 00:16:03;;;;;;;5.68;4.10;;;10.90;99.90;;;;;;4991627;28;92643;-70
2022/09/30 00:18:31;;;;;;;4.60;4.20;;;10.90;99.90;;;;;;4991558;28;92407;-70
2022/09/30 00:20:58;;;;;;;4.57;4.18;;;10.90;99.90;;;;;;4975945;28;93037;-70
2022/09/30 00:23:25;;;;;;;4.55;4.15;;;10.90;99.90;;;;;;4976324;28;93088;-70
2022/09/30 00:39:42;;;;;;;4.20;3.80;;;10.60;99.90;;;;;;4974849;28;94633;-70
2022/09/30 00:42:13;;;;;;;4.82;4.20;;;10.40;99.90;;;;;;4974563;28;92573;-70
2022/09/30 00:44:46;;;;;;;5.00;4.50;;;10.50;99.90;;;;;;4976247;28;92709;-70
2022/09/30 00:47:37;;;;;;;4.78;4.38;;;10.50;99.90;;;;;;4974974;28;93177;-70
2022/09/30 00:50:19;;;;;;;5.00;4.60;;;10.50;99.90;;;;;;4976038;28;93053;-70
2022/09/30 00:53:05;;;;;;;5.10;4.60;;;10.50;99.90;;;;;;4976127;28;92382;-70
2022/09/30 00:55:56;;;;;;;5.22;4.82;;;10.40;99.90;;;;;;4976237;28;91742;-70
2022/09/30 00:58:43;;;;;;;4.35;4.00;;;10.40;99.90;;;;;;4975519;28;92594;-70
2022/09/30 01:01:10;;;;;;;4.45;4.05;;;10.40;99.90;;;;;;4974360;28;95765;-70
2022/09/30 01:03:43;;;;;;;4.80;4.40;;;10.30;99.90;;;;;;4973119;28;94809;-70
2022/09/30 01:06:10;;;;;;;4.53;3.80;;;10.40;99.90;;;;;;4991027;28;92458;-70
2022/09/30 01:08:39;;;;;;;4.40;4.10;;;10.30;99.90;;;;;;4990900;28;94723;-70
2022/09/30 01:11:06;;;;;;;4.85;4.35;;;10.30;99.90;;;;;;4975497;28;93005;-70
2022/09/30 01:13:35;;;;;;;6.70;4.35;;;10.30;99.90;;;;;;4975609;28;92957;-70
2022/09/30 01:16:25;;;;;;;4.45;4.05;;;10.30;99.90;;;;;;4975802;28;92446;-70
2022/09/30 01:19:15;;;;;;;5.07;3.75;;;10.30;99.90;;;;;;4968938;28;92583;-70
2022/09/30 01:22:19;;;;;;;4.22;3.80;;;10.30;99.90;;;;;;4975529;28;93184;-70
2022/09/30 01:25:34;;;;;;;3.90;3.60;;;10.20;99.90;;;;;;4975557;28;92448;-70
2022/09/30 01:28:23;;;;;;;3.92;3.45;;;10.20;99.90;;;;;;4970721;28;94378;-70
2022/09/30 01:31:14;;;;;;;3.95;3.65;;;10.10;99.90;;;;;;4973031;28;95678;-70
2022/09/30 01:34:12;;;;;;;4.07;3.78;;;10.10;99.90;;;;;;4990115;28;96365;-70
2022/09/30 01:36:58;;;;;;;4.40;4.10;;;10.10;99.90;;;;;;4957969;28;93324;-70
2022/09/30 01:39:56;;;;;;;4.53;4.22;;;10.00;99.90;;;;;;4957585;28;92501;-70
2022/09/30 01:42:26;;;;;;;4.63;4.22;;;10.10;99.90;;;;;;4973593;28;94436;-70
2022/09/30 01:45:12;;;;;;;5.20;4.53;;;10.00;99.90;;;;;;4975277;28;92936;-70
2022/09/30 01:48:01;;;;;;;6.35;4.90;;;10.10;99.90;;;;;;4975454;28;92943;-70
2022/09/30 01:50:36;;;;;;;5.18;4.68;;;10.00;99.90;;;;;;4990721;28;92441;-70
2022/09/30 01:53:32;;;;;;;4.97;4.45;;;10.00;99.90;;;;;;4975045;28;93465;-70
2022/09/30 01:56:12;;;;;;;6.03;5.50;;;10.00;99.90;;;;;;4974977;28;94006;-70
2022/09/30 01:58:46;;;;;;;6.30;5.80;;;10.00;99.90;;;;;;4988643;28;94846;-70
2022/09/30 02:01:24;;;;;;;6.60;5.57;;;9.90;99.90;;;;;;4974286;28;92989;-70
2022/09/30 02:03:56;;;;;;;9.00;6.45;;;9.90;99.90;;;;;;4989683;28;95882;-70
2022/09/30 02:06:27;;;;;;;6.65;6.13;;;9.90;99.90;;;;;;4990295;28;95541;-70
2022/09/30 02:09:08;;;;;;;6.45;5.95;;;9.90;99.90;;;;;;4991752;28;92511;-70
2022/09/30 02:11:37;;;;;;;7.10;6.18;;;9.90;99.90;;;;;;4960504;28;93356;-70
2022/09/30 02:14:27;;;;;;;6.35;5.75;;;9.90;99.90;;;;;;4978231;28;93088;-70
2022/09/30 02:17:14;;;;;;;5.78;5.28;;;9.90;99.90;;;;;;4993699;28;96098;-70
2022/09/30 02:19:57;;;;;;;6.07;5.57;;;9.90;99.90;;;;;;4977804;28;92461;-70
2022/09/30 02:22:39;;;;;;;7.00;5.87;;;9.90;99.90;;;;;;4978570;28;92836;-70
2022/09/30 02:25:09;;;;;;;6.05;5.50;;;9.80;99.90;;;;;;4975685;28;95673;-70
2022/09/30 02:27:41;;;;;;;6.20;5.68;;;9.80;99.90;;;;;;4992927;28;101637;-70
2022/09/30 02:30:11;;;;;;;6.35;5.75;;;9.80;99.90;;;;;;4960391;28;92495;-70
2022/09/30 02:32:46;;;;;;;6.30;5.70;;;9.80;99.90;;;;;;4976669;28;92884;-70
2022/09/30 02:35:23;;;;;;;6.40;5.90;;;9.80;99.90;;;;;;4976283;28;95665;-70
2022/09/30 02:37:56;;;;;;;6.38;5.78;;;9.80;99.90;;;;;;4978015;28;92967;-70
2022/09/30 02:40:35;;;;;;;6.03;5.50;;;9.80;99.90;;;;;;4978174;28;92589;-70
2022/09/30 02:43:04;;;;;;;5.40;5.00;;;9.80;99.90;;;;;;4976905;28;93612;-70
2022/09/30 02:45:49;;;;;;;6.35;5.80;;;9.80;99.90;;;;;;4977528;28;93177;-70
2022/09/30 02:48:40;;;;;;;6.15;5.55;;;9.80;99.90;;;;;;4977838;28;93036;-70
2022/09/30 02:51:42;;;;;;;5.72;5.22;;;9.80;99.90;;;;;;4992136;28;94896;-70
2022/09/30 02:54:31;;;;;;;6.10;5.57;;;9.90;99.90;;;;;;4977638;28;92871;-70
2022/09/30 02:57:34;;;;;;;7.13;5.97;;;9.80;99.90;;;;;;4959771;28;95786;-70
2022/09/30 03:00:01;;;;;;;5.65;5.15;;;9.80;99.90;;;;;;4977624;28;92523;-70
2022/09/30 03:02:29;;;;;;;5.47;4.97;;;9.70;99.90;;;;;;4977505;28;92557;-70
2022/09/30 03:04:56;;;;;;;5.25;4.85;;;9.70;99.90;;;;;;4976249;28;92589;-70
2022/09/30 03:07:23;;;;;;;5.90;5.40;;;9.70;99.90;;;;;;4976228;28;92863;-70
2022/09/30 03:09:56;;;;;;;6.03;5.57;;;9.70;99.90;;;;;;4977524;28;92916;-70
2022/09/30 03:12:54;;;;;;;7.00;5.57;;;9.70;99.90;;;;;;4992688;28;92520;-70
2022/09/30 03:15:42;;;;;;;6.05;5.55;;;9.70;99.90;;;;;;4977576;28;92941;-70
2022/09/30 03:18:35;;;;;;;6.25;5.18;;;9.60;99.90;;;;;;4958358;28;99600;-70
2022/09/30 03:21:08;;;;;;;5.60;5.10;;;9.60;99.90;;;;;;4974261;28;95104;-70
2022/09/30 03:24:17;;;;;;;4.93;4.53;;;9.50;99.90;;;;;;4977356;28;92452;-70
2022/09/30 03:27:13;;;;;;;5.70;5.20;;;9.50;99.90;;;;;;4976873;28;92349;-70
2022/09/30 03:29:44;;;;;;;8.57;5.68;;;9.50;99.90;;;;;;4992089;28;94216;-70
2022/09/30 03:32:44;;;;;;;5.57;5.07;;;9.40;99.90;;;;;;4992226;28;93274;-70
2022/09/30 03:35:45;;;;;;;6.80;5.18;;;9.40;99.90;;;;;;4991795;28;92606;-70
2022/09/30 03:38:33;;;;;;;5.53;5.03;;;9.40;99.90;;;;;;4977431;28;91624;-70
2022/09/30 03:41:12;;;;;;;5.80;5.30;;;9.30;99.90;;;;;;4959025;28;97591;-70
2022/09/30 03:43:46;;;;;;;7.72;5.22;;;9.30;99.90;;;;;;4992038;28;95768;-70
2022/09/30 03:46:28;;;;;;;;;;;9.30;99.90;;;;;;4976353;28;94828;-70
2022/09/30 03:49:00;;;;;;;6.35;5.75;;;9.20;99.90;;;;;;4976525;28;92499;-70
2022/09/30 03:51:28;;;;;;;6.32;5.72;;;9.20;99.90;;;;;;4977092;28;93954;-70
2022/09/30 03:53:57;;;;;;;7.00;5.95;;;9.20;99.90;;;;;;4975009;28;93162;-70
2022/09/30 03:56:29;;;;;;;5.90;5.40;;;9.20;99.90;;;;;;4975321;28;100761;-70
2022/09/30 03:58:57;;;;;;;5.65;5.15;;;9.20;99.90;;;;;;4991748;28;92528;-70
2022/09/30 04:01:24;;;;;;;5.95;5.25;;;9.20;99.90;;;;;;4975032;28;101526;-70
2022/09/30 04:03:52;;;;;;;6.07;5.57;;;9.20;99.90;;;;;;4976760;28;93174;-70
2022/09/30 04:06:24;;;;;;;6.03;5.43;;;9.20;99.90;;;;;;4976572;28;92333;-70
2022/09/30 04:08:52;;;;;;;5.90;4.93;;;9.20;99.90;;;;;;4958712;28;92498;-70
2022/09/30 04:11:19;;;;;;;6.13;5.55;;;9.10;99.90;;;;;;4990516;28;95739;-70
2022/09/30 04:13:46;;;;;;;6.43;5.22;;;9.10;99.90;;;;;;4976105;28;95152;-70
2022/09/30 04:16:13;;;;;;;7.18;5.00;;;9.10;99.90;;;;;;4976550;28;92431;-70
2022/09/30 04:18:41;;;;;;;35.78;5.78;;;9.10;99.90;;;;;;4976835;28;93214;-70
2022/09/30 04:21:10;;;;;;;10.52;5.72;;;9.00;99.90;;;;;;4952246;28;95751;-70
2022/09/30 04:23:38;;;;;;;8.30;5.40;;;9.00;99.90;;;;;;4845195;28;104531;-70
2022/09/30 04:26:09;;;;;;;68.80;9.63;;;9.00;99.90;;;;;;4955621;28;92595;-70
2022/09/30 04:28:36;;;;;;;23.58;6.55;;;9.00;99.90;;;;;;4955714;28;91795;-70
2022/09/30 04:31:05;;;;;;;10.52;6.05;;;9.00;99.90;;;;;;4955438;28;104198;-70
2022/09/30 04:33:32;;;;;;;30.50;7.63;;;9.00;99.90;;;;;;4971150;28;95557;-70
2022/09/30 04:35:59;;;;;;;19.45;7.13;;;9.00;99.90;;;;;;4970246;28;94833;-70
2022/09/30 04:38:27;;;;;;;10.77;5.78;;;9.00;99.90;;;;;;4971502;28;92617;-70
2022/09/30 04:40:54;;;;;;;8.57;5.22;;;8.90;99.90;;;;;;4955107;28;93420;-70
2022/09/30 04:43:23;;;;;;;7.78;5.85;;;8.90;99.90;;;;;;4955182;28;95603;-70
2022/09/30 04:45:51;;;;;;;6.88;6.00;;;8.90;99.90;;;;;;4938801;28;92599;-70
2022/09/30 04:48:20;;;;;;;7.93;7.10;;;8.90;99.90;;;;;;4955188;28;92461;-70
2022/09/30 04:50:47;;;;;;;6.13;5.53;;;8.90;99.90;;;;;;4954942;28;93233;-70
2022/09/30 04:53:14;;;;;;;5.95;5.35;;;8.80;99.90;;;;;;4971526;28;93083;-70
2022/09/30 04:55:42;;;;;;;5.75;5.10;;;8.80;99.90;;;;;;4955840;28;101831;-70
2022/09/30 04:58:09;;;;;;;4.95;4.50;;;8.80;99.90;;;;;;4956101;28;92456;-70
2022/09/30 05:00:37;;;;;;;4.88;4.40;;;8.80;99.90;;;;;;4954346;28;95730;-70
2022/09/30 05:03:04;;;;;;;6.38;5.70;;;8.80;99.90;;;;;;4955994;28;95444;-70
2022/09/30 05:05:32;;;;;;;6.95;6.25;;;8.80;99.90;;;;;;4971372;28;92628;-70
2022/09/30 05:08:03;;;;;;;9.35;6.68;;;8.80;99.90;;;;;;4955982;28;92437;-70
2022/09/30 05:10:30;;;;;;;11.43;7.10;;;8.80;99.90;;;;;;4954972;28;93033;-70
2022/09/30 05:12:58;;;;;;;20.00;7.70;;;8.80;99.90;;;;;;4955944;28;92961;-70
2022/09/30 05:15:25;;;;;;;33.30;8.48;;;8.80;99.90;;;;;;4954638;28;92561;-70
2022/09/30 05:17:53;;;;;;;9.48;7.22;;;8.80;99.90;;;;;;4956269;28;91687;-70
2022/09/30 05:20:20;;;;;;;24.35;8.68;;;8.80;99.90;;;;;;4970933;28;94296;-70
2022/09/30 05:22:54;;;;;;;51.30;10.27;;;8.80;99.90;;;;;;4954698;28;93159;-70
2022/09/30 05:25:22;;;;;;;20.83;8.50;;;8.80;99.90;;;;;;4968455;28;95466;-70
2022/09/30 05:27:50;;;;;;;19.15;8.95;;;8.80;99.90;;;;;;4970859;28;92665;-70
2022/09/30 05:30:17;;;;;;;12.98;8.52;;;8.80;99.90;;;;;;4921918;28;95870;-70
2022/09/30 05:32:45;;;;;;;10.52;8.30;;;8.80;99.90;;;;;;4954683;28;92879;-70
2022/09/30 05:35:12;;;;;;;10.25;7.63;;;8.80;99.90;;;;;;4955507;28;92491;-70
2022/09/30 05:37:39;;;;;;;14.07;6.85;;;8.80;99.90;;;;;;4970933;28;92584;-70
2022/09/30 05:40:07;;;;;;;16.40;7.70;;;8.70;99.90;;;;;;4970463;28;94434;-70
2022/09/30 05:42:35;;;;;;;12.88;7.70;;;8.80;99.90;;;;;;4956060;28;92942;-69
2022/09/30 05:45:04;;;;;;;9.38;6.85;;;8.70;99.90;;;;;;4958531;28;92472;-70
2022/09/30 05:47:32;;;;;;;11.38;7.25;;;8.70;99.90;;;;;;4958929;28;92484;-70
2022/09/30 05:49:59;;;;;;;7.45;6.75;;;8.70;99.90;;;;;;4957488;28;95765;-70
2022/09/30 05:52:27;;;;;;;7.85;6.95;;;8.70;99.90;;;;;;4957055;28;104773;-70
2022/09/30 05:54:56;;;;;;;6.57;5.97;;;8.70;99.90;;;;;;4957649;28;92847;-70
2022/09/30 05:57:24;;;;;;;6.90;6.20;;;8.70;99.90;;;;;;4958921;28;92463;-70
2022/09/30 05:59:51;;;;;;;9.80;7.00;;;8.70;99.90;;;;;;4958896;28;93121;-70
2022/09/30 06:02:17;;;;;;;7.38;6.60;;;8.70;99.90;;;;;;4958697;28;92795;-70
2022/09/30 06:04:44;;;;;;;8.93;7.18;;;8.70;99.90;;;;;;4958748;28;92437;-70
2022/09/30 06:07:12;;;;;;;7.88;7.10;;;8.70;99.90;;;;;;4973775;28;91782;-70
2022/09/30 06:09:39;;;;;;;27.40;7.07;;;8.70;99.90;;;;;;4957376;28;95802;-70
2022/09/30 06:12:07;;;;;;;9.63;7.65;;;8.70;99.90;;;;;;4957351;28;92749;-70
2022/09/30 06:14:34;;;;;;;6.88;6.28;;;8.80;99.90;;;;;;4956131;28;94833;-71
2022/09/30 06:17:01;;;;;;;17.42;7.22;;;8.80;99.90;;;;;;4940996;28;92535;-71
2022/09/30 06:19:29;;;;;;;14.60;7.20;;;8.80;99.90;;;;;;4958659;28;93257;-71
2022/09/30 06:21:56;;;;;;;18.58;7.43;;;8.80;99.90;;;;;;4957194;28;93045;-71
2022/09/30 06:24:24;;;;;;;21.75;7.43;;;8.90;99.90;;;;;;4957990;28;92414;-71
2022/09/30 06:26:51;;;;;;;53.70;9.95;;;8.90;99.90;;;;;;4957275;28;92450;-71
2022/09/30 06:29:18;;;;;;;40.75;9.65;;;8.90;99.90;;;;;;4956863;28;95694;-71
2022/09/30 06:31:45;;;;;;;44.55;10.40;;;9.00;99.90;;;;;;4973430;28;95565;-71
2022/09/30 06:34:12;;;;;;;110.78;12.75;;;9.00;99.90;;;;;;4956728;28;93245;-71
2022/09/30 06:36:39;;;;;;;63.08;12.20;;;9.10;99.90;;;;;;4956100;28;92659;-71
2022/09/30 06:39:06;;;;;;;87.95;11.68;;;9.10;99.90;;;;;;4956334;28;95567;-71
2022/09/30 06:41:42;;;;;;;59.60;10.93;;;9.10;99.90;;;;;;4956390;28;94300;-71
2022/09/30 06:44:10;;;;;;;20.27;9.55;;;9.20;99.90;;;;;;4940414;28;92425;-71
2022/09/30 06:46:37;;;;;;;62.65;10.55;;;9.30;99.90;;;;;;4956499;28;103846;-71
2022/09/30 06:49:16;;;;;;;29.27;10.23;;;9.30;99.90;;;;;;4957766;28;94221;-71
2022/09/30 06:51:43;;;;;;;20.52;9.68;;;9.40;99.90;;;;;;4972395;28;95615;-71
2022/09/30 06:54:10;;;;;;;13.77;9.70;;;9.50;99.90;;;;;;4957537;28;92389;-71
2022/09/30 06:56:37;;;;;;;11.38;8.50;;;9.60;99.90;;;;;;4973254;28;91726;-71
2022/09/30 06:59:04;;;;;;;10.02;9.13;;;9.60;99.90;;;;;;4940394;28;92640;-71
2022/09/30 07:01:31;;;;;;;9.77;8.77;;;9.80;99.90;;;;;;4939473;28;95620;-71
2022/09/30 07:03:58;;;;;;;10.75;9.75;;;9.80;99.90;;;;;;4939288;28;94878;-71
2022/09/30 07:06:25;;;;;;;10.50;9.60;;;9.80;99.90;;;;;;4957632;28;92481;-71
2022/09/30 07:08:53;;;;;;;11.90;10.90;;;9.90;99.90;;;;;;4957940;28;92438;-71
2022/09/30 07:11:20;;;;;;;11.27;10.15;;;9.90;99.90;;;;;;4955398;28;98726;-71
2022/09/30 07:13:48;;;;;;;10.82;9.93;;;10.00;99.90;;;;;;4956328;28;92452;-71
2022/09/30 07:16:17;;;;;;;12.82;11.52;;;10.00;99.90;;;;;;4955828;28;93044;-71
2022/09/30 07:18:44;;;;;;;12.32;11.15;;;10.00;99.90;;;;;;4972043;28;95841;-71
2022/09/30 07:21:14;;;;;;;12.75;11.65;;;10.00;99.90;;;;;;4939759;28;95798;-71
2022/09/30 07:23:46;;;;;;;13.07;11.95;;;10.10;99.90;;;;;;4972015;28;92583;-71
2022/09/30 07:26:19;;;;;;;13.35;12.13;;;10.10;99.90;;;;;;4957101;28;92966;-71
2022/09/30 07:28:46;;;;;;;12.55;11.45;;;10.20;99.90;;;;;;4954081;28;98095;-71
2022/09/30 07:31:17;;;;;;;14.10;12.73;;;10.30;99.90;;;;;;4971205;28;98112;-71
2022/09/30 07:33:58;;;;;;;13.52;12.32;;;10.30;99.90;;;;;;4957684;28;92517;-71
2022/09/30 07:36:28;;;;;;;14.85;12.98;;;10.40;99.90;;;;;;4955073;28;92423;-71
2022/09/30 07:38:59;;;;;;;13.27;12.13;;;10.50;99.90;;;;;;4955792;28;93282;-71
2022/09/30 07:41:27;;;;;;;13.73;12.43;;;10.70;99.90;;;;;;4956279;28;92488;-71
2022/09/30 07:43:57;;;;;;;16.27;10.82;;;11.00;99.90;;;;;;4971812;28;92477;-71
2022/09/30 07:46:32;;;;;;;9.35;8.55;;;11.40;99.90;;;;;;4939965;28;92016;-71
2022/09/30 07:49:03;;;;;;;9.15;8.40;;;12.10;99.90;;;;;;4957271;28;93273;-71
2022/09/30 07:51:35;;;;;;;9.23;8.50;;;12.70;99.90;;;;;;4956995;28;92940;-71
2022/09/30 07:54:14;;;;;;;8.07;7.38;;;13.50;99.90;;;;;;4954747;28;95025;-71
2022/09/30 07:56:42;;;;;;;8.70;8.00;;;14.10;99.90;;;;;;4956083;28;92510;-71
2022/09/30 07:59:32;;;;;;;10.13;9.32;;;14.70;99.90;;;;;;4971727;28;94396;-71
2022/09/30 08:01:59;;;;;;;9.93;8.95;;;15.40;99.90;;;;;;4956418;28;93042;-71
2022/09/30 08:04:26;;;;;;;10.48;9.68;;;15.80;99.90;;;;;;4971895;28;92533;-71
2022/09/30 08:06:56;;;;;;;10.40;9.35;;;16.20;99.90;;;;;;4955107;28;92545;-71
2022/09/30 08:09:25;;;;;;;10.85;9.98;;;16.60;99.90;;;;;;4956497;28;93402;-72
2022/09/30 08:11:52;;;;;;;8.73;7.88;;;16.90;99.90;;;;;;4955268;28;93047;-72
2022/09/30 08:14:24;;;;;;;9.85;9.05;;;17.10;99.90;;;;;;4956465;28;97147;-72
2022/09/30 08:16:52;;;;;;;10.63;9.63;;;17.30;99.90;;;;;;4956797;28;92557;-72
2022/09/30 08:19:21;;;;;;;11.95;10.77;;;17.30;99.90;;;;;;4953919;28;94903;-72
2022/09/30 08:21:49;;;;;;;11.75;10.55;;;17.30;99.90;;;;;;4955928;28;95436;-72
2022/09/30 08:24:16;;;;;;;11.02;10.02;;;17.10;99.90;;;;;;4955998;28;93112;-72
2022/09/30 08:26:43;;;;;;;13.43;11.95;;;16.90;99.90;;;;;;4954657;28;92533;-72
2022/09/30 08:29:12;;;;;;;13.43;12.02;;;16.70;99.90;;;;;;4954159;28;95686;-72
2022/09/30 08:31:42;;;;;;;12.97;11.67;;;16.40;99.90;;;;;;4954708;28;92409;-72
2022/09/30 08:34:09;;;;;;;13.88;12.38;;;16.20;99.90;;;;;;4956000;28;92477;-71
2022/09/30 08:36:36;;;;;;;12.20;10.98;;;16.00;99.90;;;;;;4955514;28;101993;-72
2022/09/30 08:39:04;;;;;;;14.10;11.73;;;15.90;99.90;;;;;;4970919;28;93294;-71
2022/09/30 08:41:43;;;;;;;13.82;12.38;;;15.80;99.90;;;;;;4953960;28;95693;-71
2022/09/30 08:44:36;;;;;;;13.60;11.20;;;15.60;99.90;;;;;;4969555;28;94822;-71
2022/09/30 08:47:31;;;;;;;11.68;10.27;;;15.50;99.90;;;;;;4935398;28;93369;-71
2022/09/30 08:50:09;;;;;;;13.02;11.10;;;15.40;99.90;;;;;;4970701;28;93090;-71
2022/09/30 08:52:44;;;;;;;13.43;11.93;;;15.30;99.90;;;;;;4955369;28;93093;-71
2022/09/30 08:55:31;;;;;;;13.48;11.93;;;15.10;99.90;;;;;;4938688;28;92827;-71
2022/09/30 08:58:01;;;;;;;15.52;11.20;;;15.10;99.90;;;;;;4954192;28;94117;-71
2022/09/30 09:04:07;;;;;;;11.00;9.85;;;15.00;99.90;;;;;;4955237;28;93160;-71
2022/09/30 09:06:39;;;;;;;12.60;10.40;;;14.90;99.90;;;;;;4956378;28;92983;-71
2022/09/30 09:09:31;;;;;;;12.63;10.43;;;14.90;99.90;;;;;;4955350;28;92508;-72
2022/09/30 09:12:29;;;;;;;12.48;10.48;;;15.00;99.90;;;;;;4954053;28;95576;-71
2022/09/30 09:14:59;;;;;;;12.60;10.30;;;15.00;99.90;;;;;;4970094;28;98337;-71
2022/09/30 09:17:58;;;;;;;11.15;10.05;;;15.00;99.90;;;;;;4956123;28;92541;-71
2022/09/30 09:21:08;;;;;;;10.07;9.05;;;15.10;99.90;;;;;;4928128;28;92494;-71
2022/09/30 09:23:35;;;;;;;11.32;10.20;;;15.10;99.90;;;;;;4974351;28;95829;-71
2022/09/30 09:26:03;;;;;;;10.75;9.65;;;15.10;99.90;;;;;;4957949;28;93131;-71
2022/09/30 09:28:35;;;;;;;10.30;9.23;;;15.20;99.90;;;;;;4942097;28;92626;-71
2022/09/30 09:31:04;;;;;;;10.65;9.55;;;15.20;99.90;;;;;;4941773;28;91687;-71
2022/09/30 09:33:38;;;;;;;9.30;8.15;;;15.30;99.90;;;;;;4941648;28;96005;-71
2022/09/30 09:36:37;;;;;;;10.40;9.05;;;15.40;99.90;;;;;;4957749;28;94463;-71
2022/09/30 09:39:40;;;;;;;7.70;6.95;;;15.50;99.90;;;;;;4945607;28;94868;-71
2022/09/30 09:42:35;;;;;;;8.70;7.70;;;15.50;99.90;;;;;;4959087;28;92486;-71
2022/09/30 09:45:10;;;;;;;9.50;8.50;;;15.60;99.90;;;;;;4958800;28;93198;-71
2022/09/30 09:47:37;;;;;;;7.45;6.75;;;15.70;99.90;;;;;;4959141;28;92542;-71
2022/09/30 09:50:18;;;;;;;7.05;6.18;;;15.70;99.90;;;;;;4958633;28;92433;-72
2022/09/30 09:53:04;;;;;;;7.63;6.35;;;15.90;99.90;;;;;;4958094;28;92407;-72
2022/09/30 09:55:31;;;;;;;6.45;5.85;;;15.90;99.90;;;;;;4959141;28;92374;-71
2022/09/30 09:58:06;;;;;;;6.30;5.70;;;16.00;99.90;;;;;;4959056;28;92927;-72
2022/09/30 10:03:22;;;;;;;5.43;4.50;;;16.10;99.90;;;;;;4958737;28;92547;-72
2022/09/30 10:06:09;;;;;;;6.68;5.28;;;16.30;99.90;;;;;;4957357;28;99307;-71
2022/09/30 10:08:53;;;;;;;7.15;5.50;;;16.40;99.90;;;;;;4957196;28;97956;-72
2022/09/30 10:11:26;;;;;;;5.70;5.20;;;16.60;99.90;;;;;;4957716;28;92347;-72
2022/09/30 10:13:58;;;;;;;6.82;5.20;;;16.60;99.90;;;;;;4941297;28;92426;-72
2022/09/30 10:16:27;;;;;;;5.32;4.93;;;16.70;99.90;;;;;;4940869;28;97042;-72
2022/09/30 10:18:55;;;;;;;6.03;5.53;;;16.90;99.90;;;;;;4958155;28;93030;-72
2022/09/30 10:21:24;;;;;;;4.97;4.57;;;17.00;99.90;;;;;;4972890;28;108814;-72
2022/09/30 10:23:51;;;;;;;4.75;4.35;;;17.10;99.90;;;;;;4958765;28;91695;-72
2022/09/30 10:26:28;;;;;;;4.78;4.10;;;17.10;99.90;;;;;;4956782;28;95138;-72
2022/09/30 10:28:56;;;;;;;5.47;5.07;;;17.20;99.90;;;;;;4957915;28;93122;-72
2022/09/30 10:31:25;;;;;;;5.18;4.53;;;17.30;99.90;;;;;;4939709;28;94926;-72
2022/09/30 10:34:08;;;;;;;3.80;3.50;;;17.40;99.90;;;;;;4958311;28;92484;-72
2022/09/30 10:36:37;;;;;;;5.10;4.23;;;17.50;99.90;;;;;;4972890;28;99038;-72
2022/09/30 10:39:15;;;;;;;5.05;4.65;;;17.60;99.90;;;;;;4957008;28;92711;-72
2022/09/30 10:41:42;;;;;;;4.13;3.83;;;17.80;99.90;;;;;;4973317;28;92704;-72
2022/09/30 10:44:21;;;;;;;4.90;4.53;;;17.80;99.90;;;;;;4957999;28;92464;-72
2022/09/30 10:46:54;;;;;;;4.35;4.05;;;17.90;99.90;;;;;;4958216;28;93447;-72
2022/09/30 10:49:35;;;;;;;5.55;5.25;;;17.90;99.90;;;;;;4958252;28;93026;-72
2022/09/30 10:52:03;;;;;;;4.05;3.72;;;18.00;99.70;;;;;;4958569;28;92379;-72
2022/09/30 10:54:39;;;;;;;4.30;4.00;;;17.90;99.50;;;;;;4957787;28;92446;-72
2022/09/30 10:57:15;;;;;;;4.57;4.20;;;18.00;99.40;;;;;;4956739;28;95466;-72
2022/09/30 10:59:44;;;;;;;4.80;4.05;;;18.10;99.10;;;;;;4956669;28;95434;-72
2022/09/30 11:02:35;;;;;;;3.45;3.25;;;18.10;99.10;;;;;;4957304;28;103578;-72
2022/09/30 11:05:21;;;;;;;3.85;3.55;;;18.20;98.90;;;;;;4972796;28;92483;-72
2022/09/30 11:08:05;;;;;;;5.00;4.70;;;18.30;98.90;;;;;;4957949;28;93061;-72
2022/09/30 11:10:35;;;;;;;5.50;5.10;;;18.40;98.50;;;;;;4957961;28;93051;-72
2022/09/30 11:13:42;;;;;;;4.00;3.70;;;18.40;98.80;;;;;;4972657;28;92428;-72
2022/09/30 11:16:12;;;;;;;4.05;3.75;;;18.50;97.70;;;;;;4940795;28;92185;-72
2022/09/30 11:18:42;;;;;;;4.15;3.75;;;18.40;97.90;;;;;;4939726;28;96013;-72
2022/09/30 11:21:14;;;;;;;5.82;4.70;;;18.40;98.00;;;;;;4972362;28;96519;-72
2022/09/30 11:23:51;;;;;;;5.70;5.20;;;18.50;97.40;;;;;;4956935;28;95286;-72
2022/09/30 11:26:33;;;;;;;6.60;5.97;;;18.60;97.40;;;;;;4957387;28;92446;-72
2022/09/30 11:29:08;;;;;;;5.68;5.28;;;18.70;97.10;;;;;;4972412;28;96761;-72
2022/09/30 11:32:10;;;;;;;6.45;5.90;;;18.80;96.80;;;;;;4957311;28;93105;-72
2022/09/30 11:34:49;;;;;;;6.40;5.82;;;19.10;96.00;;;;;;4957620;28;92487;-72
2022/09/30 11:37:24;;;;;;;5.78;5.35;;;19.00;95.70;;;;;;4972205;28;92633;-72
2022/09/30 11:40:15;;;;;;;6.28;5.78;;;19.10;95.70;;;;;;4957746;28;93246;-72
2022/09/30 11:43:14;;;;;;;8.43;7.80;;;19.20;95.60;;;;;;4957046;28;93027;-72
2022/09/30 11:46:03;;;;;;;7.93;7.20;;;19.20;95.30;;;;;;4929252;28;92601;-72
2022/09/30 11:48:48;;;;;;;7.78;7.07;;;19.30;95.30;;;;;;4957389;28;92481;-72
2022/09/30 11:51:23;;;;;;;8.40;6.57;;;19.20;94.80;;;;;;4970664;28;104460;-72
2022/09/30 11:54:22;;;;;;;7.05;6.45;;;19.30;94.50;;;;;;4956083;28;95443;-72
2022/09/30 11:57:00;;;;;;;5.15;4.75;;;19.40;94.10;;;;;;4945819;28;92585;-72
2022/09/30 11:59:34;;;;;;;4.93;4.63;;;19.40;93.90;;;;;;4955924;28;92717;-72
2022/09/30 12:02:08;;;;;;;6.35;5.63;;;19.50;93.60;;;;;;4957096;28;93465;-72
2022/09/30 12:04:44;;;;;;;6.90;6.22;;;19.50;93.40;;;;;;4956786;28;92993;-72
2022/09/30 12:07:20;;;;;;;4.55;4.10;;;19.60;93.50;;;;;;4972119;28;92456;-72
2022/09/30 12:09:50;;;;;;;5.30;4.97;;;19.70;93.30;;;;;;4957404;28;91633;-72
2022/09/30 12:12:18;;;;;;;4.95;3.80;;;19.60;93.30;;;;;;4955803;28;93155;-72
2022/09/30 12:14:56;;;;;;;4.70;4.18;;;19.60;93.20;;;;;;4956404;28;92569;-72
2022/09/30 12:17:35;;;;;;;5.10;4.63;;;19.60;92.90;;;;;;4955821;28;94908;-72
2022/09/30 12:20:27;;;;;;;5.55;5.05;;;19.70;92.50;;;;;;4957152;28;92532;-72
2022/09/30 12:23:09;;;;;;;5.22;4.70;;;19.90;92.40;;;;;;4955463;28;95821;-72
2022/09/30 12:25:45;;;;;;;7.05;6.45;;;20.10;92.00;;;;;;4955077;28;92865;-72
2022/09/30 12:31:44;;;;;;;5.45;4.88;;;20.20;91.50;;;;;;4956659;28;92515;-72
2022/09/30 12:34:17;;;;;;;6.22;5.68;;;20.20;91.60;;;;;;4971414;28;96044;-72
2022/09/30 12:37:00;;;;;;;8.25;6.90;;;20.10;91.30;;;;;;4938846;28;95411;-72
2022/09/30 12:39:26;;;;;;;6.13;5.55;;;20.30;91.20;;;;;;4971498;28;92502;-72
2022/09/30 12:42:09;;;;;;;7.05;6.43;;;20.20;91.20;;;;;;4956574;28;92443;-72
2022/09/30 12:44:54;;;;;;;6.70;6.05;;;20.30;91.00;;;;;;4955108;28;95612;-72
2022/09/30 12:47:26;;;;;;;7.30;6.63;;;20.50;90.60;;;;;;4954935;28;95359;-72
2022/09/30 12:49:57;;;;;;;7.30;6.80;;;20.50;90.70;;;;;;4956701;28;92547;-72
2022/09/30 12:52:25;;;;;;;8.15;7.00;;;20.50;90.90;;;;;;4956340;28;92376;-72
2022/09/30 12:54:59;;;;;;;7.40;6.70;;;20.30;90.40;;;;;;4954752;28;92434;-72
2022/09/30 12:57:31;;;;;;;8.98;8.18;;;20.30;90.20;;;;;;4956245;28;93048;-72
2022/09/30 13:00:13;;;;;;;8.75;7.90;;;20.10;90.20;;;;;;4971574;28;93138;-72
2022/09/30 13:02:45;;;;;;;8.40;7.70;;;20.00;90.70;;;;;;4956716;28;91761;-72
2022/09/30 13:05:30;;;;;;;6.85;6.15;;;19.90;90.30;;;;;;4956227;28;93883;-72
2022/09/30 13:08:17;;;;;;;7.13;6.53;;;19.90;90.50;;;;;;4955968;28;92923;-72
2022/09/30 13:11:03;;;;;;;6.90;6.30;;;19.90;90.50;;;;;;4947464;28;94998;-72
2022/09/30 13:13:32;;;;;;;7.68;7.07;;;19.90;91.00;;;;;;4956407;28;92824;-72
2022/09/30 13:16:05;;;;;;;8.35;7.55;;;19.90;90.60;;;;;;4955768;28;93157;-72
2022/09/30 13:18:32;;;;;;;8.68;7.88;;;19.80;90.60;;;;;;4955490;28;93520;-72
2022/09/30 13:21:08;;;;;;;8.57;7.88;;;19.90;90.40;;;;;;4970683;28;92531;-72
2022/09/30 13:23:49;;;;;;;8.98;8.18;;;19.90;90.50;;;;;;4955840;28;92409;-72
2022/09/30 13:28:52;;;;;;;9.38;8.48;;;20.00;90.30;;;;;;4971023;28;95780;-72
2022/09/30 13:31:24;;;;;;;9.00;8.20;;;20.10;90.40;;;;;;4954608;28;92446;-72
2022/09/30 13:34:00;;;;;;;8.43;7.72;;;20.10;90.40;;;;;;4956097;28;92446;-72
2022/09/30 13:36:37;;;;;;;10.15;9.15;;;20.20;90.50;;;;;;4954388;28;95697;-72
2022/09/30 13:39:19;;;;;;;8.07;7.38;;;20.20;90.10;;;;;;4970463;28;98050;-72
2022/09/30 13:41:54;;;;;;;8.65;7.57;;;20.30;89.10;;;;;;4937737;28;93026;-72
2022/09/30 13:44:37;;;;;;;10.13;9.18;;;20.30;89.40;;;;;;4954568;28;93015;-72
2022/09/30 13:47:42;;;;;;;9.67;8.83;;;20.30;89.80;;;;;;4970617;28;95781;-72
2022/09/30 13:50:28;;;;;;;9.70;8.80;;;20.40;89.90;;;;;;4955577;28;93048;-72
2022/09/30 13:53:05;;;;;;;9.63;8.82;;;20.30;88.80;;;;;;4955512;28;92564;-72